createdAt,value
2018-09-02T00:00:09.977Z,23.6
2018-09-02T00:02:05.268Z,23.6
2018-09-02T00:04:05.082Z,23.6
2018-09-02T00:06:04.774Z,23.6
2018-09-02T00:08:10.505Z,23.5
2018-09-02T00:10:04.765Z,23.5
2018-09-02T00:12:05.440Z,23.5
2018-09-02T00:14:05.251Z,23.5
2018-09-02T00:16:04.946Z,23.5
2018-09-02T00:18:04.898Z,23.5
2018-09-02T00:20:05.630Z,23.4
2018-09-02T00:22:04.821Z,23.4
2018-09-02T00:24:05.572Z,23.4
2018-09-02T00:26:10.365Z,23.4
2018-09-02T00:28:08.136Z,23.4
2018-09-02T00:30:04.855Z,23.4
2018-09-02T00:32:08.034Z,23.3
2018-09-02T00:34:07.257Z,23.3
2018-09-02T00:36:05.463Z,23.3
2018-09-02T00:38:05.146Z,23.3
2018-09-02T00:40:04.824Z,23.3
2018-09-02T00:42:05.035Z,23.3
2018-09-02T00:44:04.781Z,23.3
2018-09-02T00:46:05.455Z,23.3
2018-09-02T00:48:05.151Z,23.3
2018-09-02T00:50:04.846Z,23.3
2018-09-02T00:52:05.574Z,23.3
2018-09-02T00:54:05.304Z,23.2
2018-09-02T00:56:05.006Z,23.2
2018-09-02T00:58:05.243Z,23.2
2018-09-02T01:00:07.399Z,23.1
2018-09-02T01:02:04.657Z,23.1
2018-09-02T01:04:07.958Z,23.1
2018-09-02T01:06:04.618Z,23.1
2018-09-02T01:08:05.348Z,23.1
2018-09-02T01:10:07.623Z,23.1
2018-09-02T01:12:05.371Z,23.1
2018-09-02T01:14:07.591Z,23
2018-09-02T01:16:05.395Z,23.1
2018-09-02T01:18:05.482Z,23.1
2018-09-02T01:20:05.194Z,23
2018-09-02T01:22:05.511Z,23
2018-09-02T01:24:09.809Z,23
2018-09-02T01:26:10.550Z,23
2018-09-02T01:28:04.805Z,23
2018-09-02T01:30:05.042Z,23
2018-09-02T01:32:05.268Z,23
2018-09-02T01:34:04.983Z,23
2018-09-02T01:36:04.665Z,23
2018-09-02T01:38:05.417Z,23
2018-09-02T01:40:05.114Z,23
2018-09-02T01:42:04.821Z,22.8
2018-09-02T01:44:05.008Z,22.9
2018-09-02T01:46:04.681Z,22.9
2018-09-02T01:48:07.961Z,22.9
2018-09-02T01:50:04.634Z,22.9
2018-09-02T01:52:05.348Z,22.9
2018-09-02T01:54:05.020Z,22.9
2018-09-02T01:56:04.680Z,22.9
2018-09-02T01:58:05.411Z,22.9
2018-09-02T02:00:05.095Z,22.9
2018-09-02T02:02:04.771Z,22.9
2018-09-02T02:04:05.463Z,22.8
2018-09-02T02:06:07.709Z,22.9
2018-09-02T02:08:05.435Z,22.8
2018-09-02T02:10:04.649Z,22.8
2018-09-02T02:12:07.436Z,22.8
2018-09-02T02:14:07.677Z,22.8
2018-09-02T02:16:05.367Z,22.8
2018-09-02T02:18:05.320Z,22.8
2018-09-02T02:20:07.508Z,22.7
2018-09-02T02:22:05.191Z,22.7
2018-09-02T02:24:04.940Z,22.7
2018-09-02T02:26:04.751Z,22.7
2018-09-02T02:28:10.546Z,22.7
2018-09-02T02:30:04.761Z,22.7
2018-09-02T02:32:07.984Z,22.7
2018-09-02T02:34:07.771Z,22.7
2018-09-02T02:36:10.494Z,22.7
2018-09-02T02:38:04.689Z,22.7
2018-09-02T02:40:05.477Z,22.6
2018-09-02T02:42:05.189Z,22.6
2018-09-02T02:44:04.851Z,22.6
2018-09-02T02:46:05.526Z,22.6
2018-09-02T02:48:04.752Z,22.6
2018-09-02T02:50:05.379Z,22.6
2018-09-02T02:52:05.653Z,22.6
2018-09-02T02:54:05.327Z,22.6
2018-09-02T02:56:05.541Z,22.6
2018-09-02T02:58:05.322Z,22.6
2018-09-02T03:00:07.555Z,22.6
2018-09-02T03:02:05.219Z,22.6
2018-09-02T03:04:04.991Z,22.6
2018-09-02T03:06:04.668Z,22.5
2018-09-02T03:08:05.372Z,22.5
2018-09-02T03:10:05.133Z,22.6
2018-09-02T03:12:04.844Z,22.5
2018-09-02T03:14:08.055Z,22.5
2018-09-02T03:16:04.776Z,22.5
2018-09-02T03:18:04.753Z,22.5
2018-09-02T03:20:05.537Z,22.5
2018-09-02T03:22:04.727Z,22.4
2018-09-02T03:24:05.403Z,22.5
2018-09-02T03:26:05.085Z,22.4
2018-09-02T03:28:07.393Z,22.4
2018-09-02T03:30:05.093Z,22.4
2018-09-02T03:32:05.331Z,22.5
2018-09-02T03:34:05.123Z,22.4
2018-09-02T03:36:04.843Z,22.4
2018-09-02T03:38:07.646Z,22.4
2018-09-02T03:40:05.376Z,22.4
2018-09-02T03:42:07.602Z,22.4
2018-09-02T03:44:05.250Z,22.4
2018-09-02T03:46:05.010Z,22.4
2018-09-02T03:48:04.753Z,22.4
2018-09-02T03:50:05.476Z,22.4
2018-09-02T03:52:05.188Z,22.4
2018-09-02T03:54:04.930Z,22.4
2018-09-02T03:56:04.633Z,22.4
2018-09-02T03:58:05.355Z,22.3
2018-09-02T04:00:05.037Z,22.4
2018-09-02T04:02:07.279Z,22.3
2018-09-02T04:04:05.006Z,22.3
2018-09-02T04:06:05.302Z,22.3
2018-09-02T04:08:05.050Z,22.3
2018-09-02T04:10:05.330Z,22.3
2018-09-02T04:12:10.168Z,22.3
2018-09-02T04:14:04.950Z,22.3
2018-09-02T04:16:04.803Z,22.3
2018-09-02T04:18:04.692Z,22.3
2018-09-02T04:20:07.442Z,22.3
2018-09-02T04:22:05.208Z,22.2
2018-09-02T04:24:04.894Z,22.3
2018-09-02T04:26:13.177Z,22.2
2018-09-02T04:28:07.459Z,22.2
2018-09-02T04:30:05.171Z,22.2
2018-09-02T04:32:04.892Z,22.2
2018-09-02T04:34:10.630Z,22.2
2018-09-02T04:36:10.473Z,22.2
2018-09-02T04:38:05.267Z,22.2
2018-09-02T04:40:04.996Z,22.2
2018-09-02T04:42:04.697Z,22.2
2018-09-02T04:44:05.421Z,22.2
2018-09-02T04:46:07.142Z,22.1
2018-09-02T04:48:05.009Z,22.2
2018-09-02T04:50:04.680Z,22.2
2018-09-02T04:52:07.394Z,22.2
2018-09-02T04:54:07.642Z,22.1
2018-09-02T04:56:08.101Z,22.2
2018-09-02T04:58:05.132Z,22.1
2018-09-02T05:00:04.866Z,22.1
2018-09-02T05:02:04.638Z,22.2
2018-09-02T05:04:05.319Z,22.2
2018-09-02T05:06:10.130Z,22.1
2018-09-02T05:08:05.405Z,22.1
2018-09-02T05:10:05.208Z,22.1
2018-09-02T05:12:09.958Z,22.1
2018-09-02T05:14:12.271Z,22.1
2018-09-02T05:16:04.967Z,22.1
2018-09-02T05:18:04.891Z,22.1
2018-09-02T05:20:05.613Z,22.1
2018-09-02T05:22:04.820Z,22.1
2018-09-02T05:24:05.482Z,22.1
2018-09-02T05:26:10.273Z,22.1
2018-09-02T05:28:10.151Z,22.1
2018-09-02T05:30:05.326Z,22.1
2018-09-02T05:32:05.554Z,22.1
2018-09-02T05:34:05.235Z,22.1
2018-09-02T05:36:04.896Z,22.1
2018-09-02T05:38:05.557Z,22.1
2018-09-02T05:40:04.788Z,22.1
2018-09-02T05:42:08.024Z,22.1
2018-09-02T05:44:12.265Z,22.1
2018-09-02T05:46:07.518Z,22.1
2018-09-02T05:48:05.250Z,22.1
2018-09-02T05:50:15.177Z,22.1
2018-09-02T05:52:09.917Z,22.2
2018-09-02T05:54:05.123Z,22.2
2018-09-02T05:56:04.839Z,22.2
2018-09-02T05:58:05.609Z,22.2
2018-09-02T06:00:07.839Z,22.2
2018-09-02T06:02:05.599Z,22.2
2018-09-02T06:04:12.896Z,22.2
2018-09-02T06:06:13.182Z,22.2
2018-09-02T06:08:04.906Z,22.2
2018-09-02T06:10:04.642Z,22.2
2018-09-02T06:12:05.499Z,22.2
2018-09-02T06:14:05.172Z,22.2
2018-09-02T06:16:04.858Z,22.3
2018-09-02T06:18:04.788Z,22.2
2018-09-02T06:20:05.419Z,22.3
2018-09-02T06:22:04.693Z,22.3
2018-09-02T06:24:05.409Z,22.3
2018-09-02T06:26:07.612Z,22.4
2018-09-02T06:28:05.597Z,22.4
2018-09-02T06:30:05.335Z,22.4
2018-09-02T06:32:05.516Z,22.4
2018-09-02T06:34:07.798Z,22.5
2018-09-02T06:36:05.479Z,22.5
2018-09-02T06:38:15.352Z,22.6
2018-09-02T06:40:10.095Z,22.7
2018-09-02T06:42:04.786Z,22.7
2018-09-02T06:44:08.021Z,22.7
2018-09-02T06:46:04.716Z,22.7
2018-09-02T06:48:05.406Z,22.7
2018-09-02T06:50:05.102Z,22.8
2018-09-02T06:52:04.761Z,22.8
2018-09-02T06:54:05.443Z,22.9
2018-09-02T06:56:07.678Z,23
2018-09-02T06:58:10.391Z,23
2018-09-02T07:00:05.147Z,23
2018-09-02T07:02:07.530Z,23.1
2018-09-02T07:04:07.744Z,23.1
2018-09-02T07:06:05.404Z,23.1
2018-09-02T07:08:05.086Z,23.1
2018-09-02T07:10:04.861Z,23.2
2018-09-02T07:12:05.114Z,23.2
2018-09-02T07:14:07.419Z,23.3
2018-09-02T07:16:05.183Z,23.3
2018-09-02T07:18:10.187Z,23.4
2018-09-02T07:20:04.972Z,23.4
2018-09-02T07:22:04.905Z,23.5
2018-09-02T07:24:04.691Z,23.4
2018-09-02T07:26:05.444Z,23.5
2018-09-02T07:28:05.164Z,23.5
2018-09-02T07:30:04.865Z,23.6
2018-09-02T07:32:10.614Z,23.7
2018-09-02T07:34:04.829Z,23.7
2018-09-02T07:36:08.024Z,23.7
2018-09-02T07:38:04.779Z,23.7
2018-09-02T07:40:05.462Z,23.8
2018-09-02T07:42:05.155Z,23.8
2018-09-02T07:44:04.877Z,23.7
2018-09-02T07:46:07.593Z,23.8
2018-09-02T07:48:05.375Z,23.8
2018-09-02T07:50:05.242Z,23.9
2018-09-02T07:52:04.904Z,24
2018-09-02T07:54:04.750Z,23.9
2018-09-02T07:56:07.981Z,24
2018-09-02T07:58:04.681Z,23.9
2018-09-02T08:00:05.416Z,24
2018-09-02T08:02:04.700Z,24
2018-09-02T08:04:08.131Z,24
2018-09-02T08:06:04.863Z,24
2018-09-02T08:08:05.609Z,24
2018-09-02T08:10:04.871Z,23.9
2018-09-02T08:12:10.624Z,24
2018-09-02T08:14:05.351Z,24
2018-09-02T08:16:05.004Z,24
2018-09-02T08:18:04.903Z,24
2018-09-02T08:20:05.602Z,24
2018-09-02T08:22:04.786Z,24
2018-09-02T08:24:07.552Z,24
2018-09-02T08:26:10.280Z,24
2018-09-02T08:28:04.956Z,24
2018-09-02T08:30:05.186Z,24
2018-09-02T08:32:05.458Z,23.9
2018-09-02T08:34:07.705Z,24.1
2018-09-02T08:36:05.572Z,24
2018-09-02T08:38:07.769Z,24.1
2018-09-02T08:40:05.507Z,24.1
2018-09-02T08:42:10.230Z,24
2018-09-02T08:44:07.932Z,24.1
2018-09-02T08:46:04.859Z,24.1
2018-09-02T08:48:05.591Z,24.2
2018-09-02T08:50:05.338Z,24.2
2018-09-02T08:52:10.123Z,24.1
2018-09-02T08:54:05.030Z,24.1
2018-09-02T08:56:05.374Z,24.2
2018-09-02T08:58:04.665Z,24.2
2018-09-02T09:00:05.348Z,24.2
2018-09-02T09:02:05.075Z,24.2
2018-09-02T09:04:05.431Z,24.2
2018-09-02T09:06:09.964Z,24.3
2018-09-02T09:08:04.895Z,24.3
2018-09-02T09:10:05.116Z,24.3
2018-09-02T09:12:09.866Z,24.3
2018-09-02T09:14:05.696Z,24.3
2018-09-02T09:16:15.993Z,24.3
2018-09-02T09:18:20.904Z,24.3
2018-09-02T09:20:13.127Z,24.3
2018-09-02T09:22:04.909Z,24.3
2018-09-02T09:24:04.744Z,24.3
2018-09-02T09:26:04.928Z,24.3
2018-09-02T09:28:05.605Z,24.3
2018-09-02T09:30:07.827Z,24.3
2018-09-02T09:32:08.089Z,24.3
2018-09-02T09:34:04.923Z,24.3
2018-09-02T09:36:08.113Z,24.3
2018-09-02T09:38:04.811Z,24.3
2018-09-02T09:40:04.977Z,24.3
2018-09-02T09:42:05.038Z,24.3
2018-09-02T09:44:05.578Z,24.4
2018-09-02T09:46:05.415Z,24.4
2018-09-02T09:48:09.870Z,24.4
2018-09-02T09:50:05.310Z,24.4
2018-09-02T09:52:04.987Z,24.4
2018-09-02T09:54:05.221Z,24.4
2018-09-02T09:56:07.498Z,24.4
2018-09-02T09:58:05.180Z,24.4
2018-09-02T10:00:04.904Z,24.3
2018-09-02T10:02:05.104Z,24.3
2018-09-02T10:04:05.300Z,24.3
2018-09-02T10:06:05.051Z,24.2
2018-09-02T10:08:05.458Z,24.3
2018-09-02T10:10:05.132Z,24.3
2018-09-02T10:12:04.859Z,24.2
2018-09-02T10:14:08.080Z,24.2
2018-09-02T10:16:07.324Z,24.2
2018-09-02T10:18:07.804Z,24.2
2018-09-02T10:20:05.601Z,24.2
2018-09-02T10:22:07.346Z,24.2
2018-09-02T10:24:07.628Z,24.2
2018-09-02T10:26:05.275Z,24.2
2018-09-02T10:28:05.472Z,24.2
2018-09-02T10:30:05.178Z,24.2
2018-09-02T10:32:07.374Z,24.1
2018-09-02T10:34:12.727Z,24.2
2018-09-02T10:36:05.404Z,24.2
2018-09-02T10:38:05.188Z,24.2
2018-09-02T10:40:07.518Z,24.2
2018-09-02T10:42:07.848Z,24.1
2018-09-02T10:44:05.497Z,24.1
2018-09-02T10:46:05.186Z,24.1
2018-09-02T10:48:04.996Z,24.1
2018-09-02T10:50:07.310Z,24.1
2018-09-02T10:52:05.009Z,24.1
2018-09-02T10:54:04.712Z,24.1
2018-09-02T10:56:05.390Z,24.1
2018-09-02T10:58:07.626Z,24.1
2018-09-02T11:00:07.861Z,24.1
2018-09-02T11:02:05.544Z,24.1
2018-09-02T11:04:05.195Z,24.1
2018-09-02T11:06:04.878Z,24.1
2018-09-02T11:08:05.643Z,24.1
2018-09-02T11:10:05.307Z,24.1
2018-09-02T11:12:05.517Z,24
2018-09-02T11:14:05.248Z,24
2018-09-02T11:16:05.003Z,24
2018-09-02T11:18:07.450Z,24
2018-09-02T11:20:15.263Z,24
2018-09-02T11:22:05.021Z,24
2018-09-02T11:24:04.705Z,24
2018-09-02T11:26:07.484Z,24
2018-09-02T11:28:05.274Z,24
2018-09-02T11:30:04.975Z,24
2018-09-02T11:32:04.811Z,24
2018-09-02T11:34:05.577Z,24
2018-09-02T11:36:04.865Z,24
2018-09-02T11:38:05.602Z,24
2018-09-02T11:40:05.267Z,24
2018-09-02T11:42:04.985Z,23.9
2018-09-02T11:44:07.210Z,23.9
2018-09-02T11:46:07.457Z,23.9
2018-09-02T11:48:05.161Z,23.9
2018-09-02T11:50:05.449Z,23.9
2018-09-02T11:52:05.169Z,23.9
2018-09-02T11:54:04.887Z,23.9
2018-09-02T11:56:05.597Z,23.9
2018-09-02T11:58:04.805Z,23.9
2018-09-02T12:00:04.775Z,23.9
2018-09-02T12:02:05.015Z,23.9
2018-09-02T12:04:04.804Z,23.9
2018-09-02T12:06:05.364Z,23.9
2018-09-02T12:08:07.801Z,23.9
2018-09-02T12:10:05.482Z,23.9
2018-09-02T12:12:04.696Z,23.9
2018-09-02T12:14:05.589Z,23.9
2018-09-02T12:16:05.390Z,23.9
2018-09-02T12:18:10.319Z,23.9
2018-09-02T12:20:04.965Z,23.9
2018-09-02T12:22:04.672Z,23.9
2018-09-02T12:24:05.336Z,23.9
2018-09-02T12:26:07.610Z,23.9
2018-09-02T12:28:05.399Z,23.9
2018-09-02T12:30:05.120Z,23.9
2018-09-02T12:32:04.857Z,23.9
2018-09-02T12:34:08.122Z,23.9
2018-09-02T12:36:05.100Z,23.9
2018-09-02T12:38:04.845Z,23.9
2018-09-02T12:40:05.550Z,23.9
2018-09-02T12:42:05.045Z,23.9
2018-09-02T12:44:04.920Z,23.9
2018-09-02T12:46:04.639Z,23.9
2018-09-02T12:48:05.396Z,23.9
2018-09-02T12:50:05.505Z,23.9
2018-09-02T12:52:05.256Z,23.9
2018-09-02T12:54:05.002Z,23.9
2018-09-02T12:56:05.316Z,23.9
2018-09-02T12:58:07.575Z,23.9
2018-09-02T13:00:07.782Z,23.9
2018-09-02T13:02:05.428Z,23.9
2018-09-02T13:04:12.727Z,23.9
2018-09-02T13:06:05.003Z,23.9
2018-09-02T13:08:04.711Z,23.9
2018-09-02T13:10:10.438Z,23.9
2018-09-02T13:12:05.198Z,23.9
2018-09-02T13:14:07.518Z,23.9
2018-09-02T13:16:07.227Z,24
2018-09-02T13:18:05.148Z,24
2018-09-02T13:20:04.875Z,24
2018-09-02T13:22:08.077Z,23.9
2018-09-02T13:24:05.377Z,23.9
2018-09-02T13:26:04.652Z,23.9
2018-09-02T13:28:07.875Z,23.9
2018-09-02T13:30:05.575Z,23.9
2018-09-02T13:32:05.398Z,23.9
2018-09-02T13:34:04.680Z,23.9
2018-09-02T13:36:05.446Z,23.9
2018-09-02T13:38:07.221Z,23.9
2018-09-02T13:40:04.961Z,23.9
2018-09-02T13:42:04.712Z,23.9
2018-09-02T13:44:05.410Z,23.9
2018-09-02T13:46:05.096Z,23.9
2018-09-02T13:48:09.892Z,23.9
2018-09-02T13:50:05.607Z,23.9
2018-09-02T13:52:07.375Z,23.9
2018-09-02T13:54:12.776Z,23.9
2018-09-02T13:56:05.059Z,23.9
2018-09-02T13:58:04.787Z,23.9
2018-09-02T14:00:10.529Z,23.9
2018-09-02T14:02:05.318Z,23.9
2018-09-02T14:04:05.034Z,23.9
2018-09-02T14:06:04.788Z,23.9
2018-09-02T14:08:05.613Z,23.9
2018-09-02T14:10:05.539Z,24
2018-09-02T14:12:05.199Z,24
2018-09-02T14:14:04.893Z,23.9
2018-09-02T14:16:08.127Z,23.9
2018-09-02T14:18:05.054Z,23.9
2018-09-02T14:20:04.806Z,23.9
2018-09-02T14:22:05.557Z,23.9
2018-09-02T14:24:05.267Z,23.9
2018-09-02T14:26:05.508Z,23.9
2018-09-02T14:28:05.248Z,23.9
2018-09-02T14:30:04.979Z,24
2018-09-02T14:32:04.666Z,24
2018-09-02T14:34:05.469Z,23.9
2018-09-02T14:36:05.473Z,23.9
2018-09-02T14:38:05.130Z,24
2018-09-02T14:40:05.298Z,23.9
2018-09-02T14:42:05.031Z,23.9
2018-09-02T14:44:04.748Z,24
2018-09-02T14:46:05.506Z,23.9
2018-09-02T14:48:05.229Z,23.9
2018-09-02T14:50:05.450Z,23.9
2018-09-02T14:52:08.312Z,23.9
2018-09-02T14:54:05.042Z,24
2018-09-02T14:56:09.892Z,23.9
2018-09-02T14:58:05.129Z,24
2018-09-02T15:00:04.784Z,23.9
2018-09-02T15:02:05.493Z,23.9
2018-09-02T15:04:05.266Z,23.9
2018-09-02T15:06:04.972Z,23.9
2018-09-02T15:08:04.696Z,23.9
2018-09-02T15:10:05.379Z,23.9
2018-09-02T15:12:07.603Z,23.9
2018-09-02T15:14:05.309Z,23.9
2018-09-02T15:16:07.589Z,23.9
2018-09-02T15:18:12.568Z,23.9
2018-09-02T15:20:05.283Z,23.9
2018-09-02T15:22:05.030Z,23.9
2018-09-02T15:24:04.778Z,24
2018-09-02T15:26:05.545Z,23.9
2018-09-02T15:28:05.271Z,23.9
2018-09-02T15:30:05.511Z,23.9
2018-09-02T15:32:05.596Z,24
2018-09-02T15:34:05.277Z,23.9
2018-09-02T15:36:08.512Z,24
2018-09-02T15:38:05.271Z,24
2018-09-02T15:40:10.040Z,23.9
2018-09-02T15:42:07.395Z,23.9
2018-09-02T15:44:05.166Z,24
2018-09-02T15:46:04.897Z,24
2018-09-02T15:48:05.597Z,23.9
2018-09-02T15:50:07.919Z,24
2018-09-02T15:52:12.326Z,23.9
2018-09-02T15:54:05.250Z,23.9
2018-09-02T15:56:04.954Z,23.9
2018-09-02T15:58:12.287Z,23.9
2018-09-02T16:00:04.949Z,24
2018-09-02T16:02:07.209Z,24
2018-09-02T16:04:04.903Z,24
2018-09-02T16:06:04.654Z,24
2018-09-02T16:08:07.950Z,24
2018-09-02T16:10:07.423Z,23.9
2018-09-02T16:12:06.117Z,24
2018-09-02T16:14:04.770Z,24
2018-09-02T16:16:10.522Z,24
2018-09-02T16:18:04.970Z,24
2018-09-02T16:20:04.700Z,24
2018-09-02T16:22:04.768Z,24
2018-09-02T16:24:08.001Z,24
2018-09-02T16:26:04.706Z,24
2018-09-02T16:28:04.624Z,24
2018-09-02T16:30:05.331Z,24
2018-09-02T16:32:05.125Z,24
2018-09-02T16:34:04.832Z,24
2018-09-02T16:36:04.831Z,24
2018-09-02T16:38:07.553Z,24
2018-09-02T16:40:05.260Z,24
2018-09-02T16:42:04.989Z,24
2018-09-02T16:44:09.732Z,24
2018-09-02T16:46:05.397Z,24
2018-09-02T16:48:04.632Z,24
2018-09-02T16:50:05.384Z,24
2018-09-02T16:52:05.101Z,24
2018-09-02T16:54:07.319Z,24
2018-09-02T16:56:05.158Z,24
2018-09-02T16:58:04.995Z,24
2018-09-02T17:00:04.738Z,24
2018-09-02T17:02:04.694Z,24
2018-09-02T17:04:05.429Z,24
2018-09-02T17:06:07.666Z,24
2018-09-02T17:08:09.944Z,24
2018-09-02T17:10:05.617Z,24
2018-09-02T17:12:07.544Z,24
2018-09-02T17:14:05.527Z,24
2018-09-02T17:16:10.396Z,24
2018-09-02T17:18:05.330Z,24
2018-09-02T17:20:05.423Z,24
2018-09-02T17:22:05.175Z,24
2018-09-02T17:24:04.895Z,24
2018-09-02T17:26:05.618Z,24
2018-09-02T17:28:07.164Z,24
2018-09-02T17:30:05.064Z,24
2018-09-02T17:32:05.377Z,24
2018-09-02T17:34:10.136Z,24
2018-09-02T17:36:05.136Z,24
2018-09-02T17:38:04.941Z,24
2018-09-02T17:40:07.159Z,24.1
2018-09-02T17:42:05.049Z,24.1
2018-09-02T17:44:04.803Z,24.1
2018-09-02T17:46:05.453Z,24.1
2018-09-02T17:48:05.167Z,24
2018-09-02T17:50:04.887Z,24
2018-09-02T17:52:05.161Z,24
2018-09-02T17:54:09.879Z,24.1
2018-09-02T17:56:05.548Z,24.1
2018-09-02T17:58:05.280Z,24.1
2018-09-02T18:00:04.993Z,24.1
2018-09-02T18:02:12.435Z,24.1
2018-09-02T18:04:05.029Z,24.1
2018-09-02T18:06:05.302Z,24.1
2018-09-02T18:08:05.058Z,24.1
2018-09-02T18:10:04.960Z,24.1
2018-09-02T18:12:05.253Z,24.1
2018-09-02T18:14:04.924Z,24.1
2018-09-02T18:16:07.648Z,24.1
2018-09-02T18:18:05.532Z,24.1
2018-09-02T18:20:20.412Z,24
2018-09-02T18:22:10.159Z,24
2018-09-02T18:24:09.907Z,23.8
2018-09-02T18:26:05.584Z,23.8
2018-09-02T18:28:10.296Z,23.7
2018-09-02T18:30:15.095Z,23.7
2018-09-02T18:32:04.830Z,23.7
2018-09-02T18:34:13.106Z,23.6
2018-09-02T18:36:09.895Z,23.5
2018-09-02T18:38:04.912Z,23.5
2018-09-02T18:40:08.132Z,23.4
2018-09-02T18:42:07.434Z,23.4
2018-09-02T18:44:05.172Z,23.4
2018-09-02T18:46:04.951Z,23.4
2018-09-02T18:48:05.308Z,23.4
2018-09-02T18:50:10.090Z,23.4
2018-09-02T18:52:04.833Z,23.3
2018-09-02T18:54:05.540Z,23.3
2018-09-02T18:56:05.323Z,23.4
2018-09-02T18:58:05.575Z,23.3
2018-09-02T19:00:05.261Z,23.3
2018-09-02T19:02:05.472Z,23.2
2018-09-02T19:04:05.133Z,23.3
2018-09-02T19:06:04.908Z,23.3
2018-09-02T19:08:08.117Z,23.3
2018-09-02T19:10:08.161Z,23.3
2018-09-02T19:12:04.889Z,23.3
2018-09-02T19:14:04.619Z,23.3
2018-09-02T19:16:05.395Z,23.3
2018-09-02T19:18:05.538Z,23.3
2018-09-02T19:20:05.216Z,23.3
2018-09-02T19:22:04.992Z,23.4
2018-09-02T19:24:09.751Z,23.4
2018-09-02T19:26:07.963Z,23.4
2018-09-02T19:28:04.847Z,23.4
2018-09-02T19:30:07.612Z,23.5
2018-09-02T19:32:07.900Z,23.5
2018-09-02T19:34:05.124Z,23.5
2018-09-02T19:36:09.943Z,23.5
2018-09-02T19:38:04.676Z,23.5
2018-09-02T19:40:13.017Z,23.5
2018-09-02T19:42:04.730Z,23.5
2018-09-02T19:44:05.438Z,23.5
2018-09-02T19:46:07.666Z,23.6
2018-09-02T19:48:05.381Z,23.6
2018-09-02T19:50:05.120Z,23.7
2018-09-02T19:52:07.409Z,23.7
2018-09-02T19:54:04.634Z,23.7
2018-09-02T19:56:10.386Z,23.7
2018-09-02T19:58:05.153Z,23.7
2018-09-02T20:00:05.016Z,23.7
2018-09-02T20:02:04.692Z,23.8
2018-09-02T20:04:05.370Z,23.8
2018-09-02T20:06:05.055Z,23.8
2018-09-02T20:08:05.133Z,23.8
2018-09-02T20:10:07.507Z,23.8
2018-09-02T20:12:05.326Z,23.8
2018-09-02T20:14:05.070Z,23.8
2018-09-02T20:16:04.748Z,23.8
2018-09-02T20:18:07.121Z,23.8
2018-09-02T20:20:07.375Z,23.8
2018-09-02T20:22:05.046Z,23.8
2018-09-02T20:24:12.397Z,23.9
2018-09-02T20:26:07.709Z,23.9
2018-09-02T20:28:04.970Z,23.9
2018-09-02T20:30:05.266Z,23.9
2018-09-02T20:32:05.517Z,23.9
2018-09-02T20:34:05.205Z,23.9
2018-09-02T20:36:07.403Z,23.9
2018-09-02T20:38:05.110Z,23.9
2018-09-02T20:40:04.789Z,23.9
2018-09-02T20:42:05.557Z,23.9
2018-09-02T20:44:05.221Z,23.9
2018-09-02T20:46:04.928Z,23.9
2018-09-02T20:48:05.231Z,23.9
2018-09-02T20:50:08.101Z,23.9
2018-09-02T20:52:04.840Z,23.9
2018-09-02T20:54:05.526Z,23.9
2018-09-02T20:56:05.184Z,23.9
2018-09-02T20:58:04.911Z,23.9
2018-09-02T21:00:10.180Z,23.9
2018-09-02T21:02:12.515Z,23.9
2018-09-02T21:04:05.361Z,23.9
2018-09-02T21:06:05.051Z,24
2018-09-02T21:08:04.721Z,24
2018-09-02T21:10:05.447Z,24
2018-09-02T21:12:05.252Z,24
2018-09-02T21:14:10.547Z,23.9
2018-09-02T21:16:05.216Z,24
2018-09-02T21:18:04.738Z,23.9
2018-09-02T21:20:04.663Z,24
2018-09-02T21:22:05.381Z,24
2018-09-02T21:24:05.118Z,24
2018-09-02T21:26:07.299Z,24
2018-09-02T21:28:04.976Z,24
2018-09-02T21:30:04.895Z,24
2018-09-02T21:32:05.667Z,24
2018-09-02T21:34:05.407Z,24
2018-09-02T21:36:05.363Z,24
2018-09-02T21:38:05.061Z,24.1
2018-09-02T21:40:04.743Z,24.2
2018-09-02T21:42:05.463Z,24.2
2018-09-02T21:44:05.194Z,24.3
2018-09-02T21:46:04.964Z,24.3
2018-09-02T21:48:07.611Z,24.3
2018-09-02T21:50:10.357Z,24.3
2018-09-02T21:52:05.549Z,24.3
2018-09-02T21:54:04.729Z,24.4
2018-09-02T21:56:07.916Z,24.4
2018-09-02T21:58:07.184Z,24.4
2018-09-02T22:00:05.104Z,24.4
2018-09-02T22:02:04.781Z,24.4
2018-09-02T22:04:05.477Z,24.5
2018-09-02T22:06:12.841Z,24.5
2018-09-02T22:08:05.644Z,24.5
2018-09-02T22:10:05.370Z,24.5
2018-09-02T22:12:04.615Z,24.5
2018-09-02T22:14:04.767Z,24.5
2018-09-02T22:16:05.421Z,24.5
2018-09-02T22:18:05.336Z,24.5
2018-09-02T22:20:10.321Z,24.5
2018-09-02T22:22:10.182Z,24.5
2018-09-02T22:24:05.383Z,24.5
2018-09-02T22:26:05.090Z,24.5
2018-09-02T22:28:10.373Z,24.5
2018-09-02T22:30:05.103Z,24.5
2018-09-02T22:32:04.803Z,24.5
2018-09-02T22:34:05.060Z,24.4
2018-09-02T22:36:07.400Z,24.1
2018-09-02T22:38:05.362Z,24.2
2018-09-02T22:40:05.029Z,24.1
2018-09-02T22:42:04.782Z,24
2018-09-02T22:44:12.537Z,23.7
2018-09-02T22:46:05.235Z,23.7
2018-09-02T22:48:04.964Z,23.8
2018-09-02T22:50:04.699Z,23.8
2018-09-02T22:52:04.901Z,23.7
2018-09-02T22:54:05.183Z,23.7
2018-09-02T22:56:04.893Z,23.6
2018-09-02T22:58:05.632Z,23.6
2018-09-02T23:00:05.328Z,23.6
2018-09-02T23:02:05.356Z,23.6
2018-09-02T23:04:05.066Z,23.5
2018-09-02T23:06:05.270Z,23.5
2018-09-02T23:08:05.505Z,23.5
2018-09-02T23:10:10.282Z,23.5
2018-09-02T23:12:04.956Z,23.5
2018-09-02T23:14:07.232Z,23.5
2018-09-02T23:16:10.020Z,23.5
2018-09-02T23:18:04.966Z,23.5
2018-09-02T23:20:04.814Z,23.5
2018-09-02T23:22:05.527Z,23.5
2018-09-02T23:24:05.224Z,23.5
2018-09-02T23:26:04.897Z,23.4
2018-09-02T23:28:13.181Z,23.3
2018-09-02T23:30:05.435Z,23.4
2018-09-02T23:32:07.951Z,23.4
2018-09-02T23:34:04.853Z,23.4
2018-09-02T23:36:05.630Z,23.3
2018-09-02T23:38:05.313Z,23.4
2018-09-02T23:40:05.293Z,23.3
2018-09-02T23:42:05.031Z,23.3
2018-09-02T23:44:04.699Z,23.3
2018-09-02T23:46:05.419Z,23.3
2018-09-02T23:48:04.637Z,23.4
2018-09-02T23:50:07.870Z,23.4
2018-09-02T23:52:05.096Z,23.3
2018-09-02T23:54:04.851Z,23.3
2018-09-02T23:56:05.543Z,23.3
2018-09-02T23:58:04.743Z,23.3
